Time;durP1;ratioP1;P1;durP2;ratioP2;P2;SDS_P1;SDS_P2;PMS_P1;PMS_P2;Temp;Humidity;BMP_temperature;BMP_pressure;BME280_temperature;BME280_humidity;BME280_pressure;Samples;Min_cycle;Max_cycle;Signal;HPM_P1;HPM_P2
2022/04/28 05:32:32;;;;;;;15.05;9.90;;;;;;;12.24;87.44;99117.09;5037511;28;20393;-58
2022/04/28 05:34:58;;;;;;;17.98;10.45;;;;;;;12.28;87.95;99108.84;5039371;28;20040;-59
2022/04/28 05:37:23;;;;;;;14.75;10.27;;;;;;;12.27;86.70;99119.41;5033613;28;20469;-58
2022/04/28 05:39:48;;;;;;;13.80;10.32;;;;;;;12.26;87.40;99123.78;5020242;28;20101;-58
2022/04/28 05:42:14;;;;;;;14.80;10.50;;;;;;;12.26;87.62;99120.38;5027228;28;20147;-59
2022/04/28 05:47:26;;;;;;;15.80;10.27;;;;;;;12.28;87.43;99132.31;5018801;28;20071;-58
2022/04/28 05:49:53;;;;;;;12.98;9.73;;;;;;;12.38;87.46;99124.44;5019375;28;20029;-59
2022/04/28 05:52:19;;;;;;;14.93;10.55;;;;;;;12.41;86.87;99125.94;5021476;28;20098;-60
2022/04/28 05:54:44;;;;;;;15.82;10.40;;;;;;;12.40;88.33;99135.56;5014655;28;20835;-59
2022/04/28 05:57:11;;;;;;;13.50;10.15;;;;;;;12.48;87.77;99137.44;5016006;28;20026;-59
2022/04/28 05:59:37;;;;;;;14.07;10.00;;;;;;;12.50;87.95;99141.56;5016507;28;20850;-60
2022/04/28 06:02:02;;;;;;;13.98;10.05;;;;;;;12.66;87.21;99147.94;5018767;28;20033;-59
2022/04/28 06:04:28;;;;;;;13.45;10.30;;;;;;;12.81;86.50;99143.03;5025915;28;20125;-59
2022/04/28 06:06:53;;;;;;;14.98;10.43;;;;;;;12.74;85.95;99114.13;5024122;28;20033;-59
2022/04/28 06:09:19;;;;;;;14.77;9.95;;;;;;;13.04;84.65;99141.66;5020355;28;20049;-59
2022/04/28 06:11:44;;;;;;;14.20;10.70;;;;;;;12.99;85.13;99143.06;5028666;28;20030;-59
2022/04/28 06:14:10;;;;;;;13.63;10.38;;;;;;;12.98;84.23;99151.91;5018196;28;20033;-64
2022/04/28 06:16:35;;;;;;;14.32;9.38;;;;;;;12.88;84.01;99131.06;5024527;28;20030;-59
2022/04/28 06:19:00;;;;;;;14.00;10.35;;;;;;;12.92;83.80;99145.44;5019699;28;20088;-59
2022/04/28 06:21:26;;;;;;;13.60;9.65;;;;;;;13.01;82.01;99156.81;5020386;28;20029;-59
2022/04/28 06:23:51;;;;;;;13.35;9.38;;;;;;;12.93;81.91;99154.13;5021441;28;20024;-59
2022/04/28 06:26:17;;;;;;;17.45;9.80;;;;;;;12.92;82.21;99145.44;5029775;28;20033;-59
2022/04/28 06:28:42;;;;;;;12.57;9.77;;;;;;;12.95;83.58;99158.22;5030487;28;20061;-60
2022/04/28 06:31:08;;;;;;;13.98;9.90;;;;;;;13.04;83.67;99151.28;5042421;28;20040;-59
2022/04/28 06:33:33;;;;;;;13.40;10.00;;;;;;;13.07;84.13;99158.84;5040804;28;20021;-60
2022/04/28 06:35:59;;;;;;;12.00;9.20;;;;;;;13.16;83.75;99147.50;5035647;28;20033;-60
2022/04/28 06:38:24;;;;;;;13.70;9.70;;;;;;;13.27;82.25;99157.72;5026375;28;20401;-60
2022/04/28 06:40:50;;;;;;;14.25;9.68;;;;;;;13.31;81.93;99150.47;5027621;28;20029;-59
2022/04/28 06:43:17;;;;;;;14.52;9.27;;;;;;;13.19;82.22;99123.69;5019290;28;20025;-59
2022/04/28 06:46:11;;;;;;;13.05;9.30;;;;;;;13.52;80.56;99157.97;5013985;28;20037;-59
2022/04/28 06:48:28;;;;;;;12.75;9.20;;;;;;;13.37;81.08;99149.84;5013728;28;20037;-60
2022/04/28 06:50:53;;;;;;;14.43;9.63;;;;;;;13.49;80.79;99157.44;5013123;28;20559;-59
2022/04/28 06:53:18;;;;;;;12.50;9.13;;;;;;;13.48;80.06;99158.44;5011191;28;20049;-59
2022/04/28 06:55:44;;;;;;;14.43;9.68;;;;;;;13.53;80.11;99159.63;5018423;28;20113;-58
2022/04/28 06:58:09;;;;;;;11.88;9.15;;;;;;;13.30;78.63;99114.81;5011893;28;20040;-59
2022/04/28 07:00:35;;;;;;;13.45;9.40;;;;;;;13.39;78.86;99128.81;5013195;28;20584;-60
2022/04/28 07:03:00;;;;;;;11.70;9.05;;;;;;;13.31;78.96;99126.94;5013925;28;20621;-59
2022/04/28 07:05:25;;;;;;;12.43;9.15;;;;;;;13.58;79.28;99167.00;5011990;28;20046;-59
2022/04/28 07:07:51;;;;;;;16.23;9.70;;;;;;;13.41;79.68;99124.25;5007844;28;20480;-59
2022/04/28 07:10:16;;;;;;;13.07;9.95;;;;;;;13.59;80.01;99147.75;5013513;28;20041;-59
2022/04/28 07:12:42;;;;;;;14.40;10.38;;;;;;;13.63;80.34;99157.75;5016875;28;20083;-59
2022/04/28 07:15:07;;;;;;;13.55;9.68;;;;;;;13.69;79.81;99158.94;5012718;28;20037;-59
2022/04/28 07:17:33;;;;;;;13.73;10.25;;;;;;;13.74;79.52;99163.72;5014572;28;20137;-59
2022/04/28 07:19:58;;;;;;;14.30;10.35;;;;;;;13.78;80.56;99157.19;5008319;28;20104;-59
2022/04/28 07:22:24;;;;;;;13.60;10.27;;;;;;;13.72;79.28;99149.97;5009596;28;20129;-58
2022/04/28 07:24:49;;;;;;;15.88;10.48;;;;;;;13.72;79.29;99158.63;5010650;28;20061;-59
2022/04/28 07:27:14;;;;;;;13.63;10.38;;;;;;;13.71;79.79;99158.78;5016987;28;20037;-59
2022/04/28 07:29:40;;;;;;;13.80;10.18;;;;;;;13.67;79.38;99152.22;5016735;28;20610;-59
2022/04/28 07:32:07;;;;;;;15.02;10.60;;;;;;;13.71;79.08;99158.78;5006407;28;20084;-59
2022/04/28 07:34:32;;;;;;;12.85;9.98;;;;;;;13.51;79.60;99121.53;5012551;28;20079;-59
2022/04/28 07:36:58;;;;;;;13.00;10.13;;;;;;;13.79;79.97;99162.28;5013042;28;20033;-59
2022/04/28 07:39:23;;;;;;;14.63;10.13;;;;;;;13.75;79.85;99149.69;5006835;28;20100;-59
2022/04/28 07:41:49;;;;;;;13.02;8.93;;;;;;;13.87;78.76;99156.28;5018103;28;20418;-59
2022/04/28 07:44:14;;;;;;;10.65;7.65;;;;;;;13.86;78.00;99162.50;5016441;28;20064;-59
2022/04/28 07:46:39;;;;;;;11.50;7.43;;;;;;;13.79;76.66;99149.22;5014234;28;20029;-59
2022/04/28 07:49:05;;;;;;;11.45;7.35;;;;;;;13.88;75.68;99160.56;5018298;28;20492;-59
2022/04/28 07:51:30;;;;;;;10.80;6.55;;;;;;;13.93;73.91;99160.09;5005500;28;20033;-59
2022/04/28 07:53:56;;;;;;;10.98;6.90;;;;;;;14.01;73.83;99165.38;5005721;28;20036;-59
2022/04/28 07:56:21;;;;;;;12.50;6.00;;;;;;;14.08;73.96;99162.97;5014120;28;20030;-59
2022/04/28 07:58:47;;;;;;;9.60;5.78;;;;;;;14.13;74.37;99161.53;5016350;28;20407;-60
2022/04/28 08:01:12;;;;;;;8.40;4.82;;;;;;;14.22;73.65;99165.84;5014915;28;20026;-59
2022/04/28 08:03:38;;;;;;;7.82;4.82;;;;;;;14.34;72.36;99168.19;5021098;28;20433;-59
2022/04/28 08:06:04;;;;;;;9.13;4.18;;;;;;;14.38;68.99;99159.91;5012785;28;20601;-59
2022/04/28 08:11:51;;;;;;;8.30;4.32;;;;;;;14.58;66.17;99164.91;5014033;28;20083;-59
2022/04/28 08:14:16;;;;;;;7.25;4.10;;;;;;;14.61;66.40;99167.22;5010991;28;20723;-59
2022/04/28 08:16:42;;;;;;;9.38;4.22;;;;;;;14.68;66.64;99165.63;5015807;28;20032;-59
2022/04/28 08:19:09;;;;;;;8.55;5.00;;;;;;;14.86;65.16;99146.34;5020093;28;20036;-59
2022/04/28 08:21:34;;;;;;;8.13;4.55;;;;;;;14.75;66.69;99166.63;5023990;28;20026;-59
2022/04/28 08:24:00;;;;;;;9.05;4.90;;;;;;;15.04;66.21;99159.34;5015643;28;20030;-59
2022/04/28 08:26:25;;;;;;;8.65;4.78;;;;;;;15.19;65.95;99165.59;5022372;28;20048;-59
2022/04/28 08:28:51;;;;;;;10.27;6.05;;;;;;;16.00;62.25;99153.53;5017198;28;20393;-59
2022/04/28 08:31:16;;;;;;;10.25;6.32;;;;;;;16.36;57.78;99160.19;5021807;28;20057;-59
2022/04/28 08:33:41;;;;;;;12.30;6.30;;;;;;;16.07;59.20;99165.00;5018981;28;20030;-59
2022/04/28 08:36:07;;;;;;;10.55;6.07;;;;;;;17.03;54.55;99168.47;5021847;28;20021;-59
2022/04/28 08:38:32;;;;;;;8.60;5.45;;;;;;;17.91;52.85;99158.50;5017343;28;20025;-60
2022/04/28 08:41:03;;;;;;;11.70;5.57;;;;;;;18.83;47.90;99162.59;5022483;28;20031;-59
2022/04/28 08:43:31;;;;;;;8.93;5.82;;;;;;;19.39;45.70;99152.25;5016661;28;20033;-59
2022/04/28 08:48:55;;;;;;;9.20;5.78;;;;;;;19.83;45.15;99157.53;5008635;28;20040;-59
2022/04/28 08:51:22;;;;;;;8.50;5.45;;;;;;;19.85;42.73;99129.13;5004675;28;20084;-60
2022/04/28 08:53:49;;;;;;;8.98;5.35;;;;;;;20.33;40.94;99161.72;5016035;28;20033;-59
2022/04/28 08:56:15;;;;;;;7.55;4.85;;;;;;;20.54;40.89;99160.00;5018804;28;20025;-59
2022/04/28 08:58:41;;;;;;;7.97;4.68;;;;;;;20.86;37.92;99124.19;5022805;28;20033;-60
2022/04/28 09:01:50;;;;;;;8.48;4.47;;;;;;;21.04;37.69;99165.91;5020881;28;20044;-59
2022/04/28 09:04:17;;;;;;;7.88;4.22;;;;;;;20.83;37.44;99166.88;5013753;28;20045;-59
2022/04/28 09:06:43;;;;;;;6.75;3.83;;;;;;;20.55;38.59;99165.09;5014791;28;20105;-59
2022/04/28 09:09:11;;;;;;;7.38;3.63;;;;;;;19.88;39.08;99161.22;5019805;28;20041;-59
2022/04/28 09:11:39;;;;;;;6.72;3.13;;;;;;;19.56;39.72;99157.28;5020001;28;20467;-59
2022/04/28 09:14:11;;;;;;;8.25;3.72;;;;;;;19.06;40.29;99154.56;5015033;28;20037;-59
2022/04/28 09:16:44;;;;;;;11.40;3.45;;;;;;;18.47;41.77;99150.16;5017352;28;20036;-60
2022/04/28 09:19:19;;;;;;;7.00;3.63;;;;;;;18.04;42.09;99145.53;5022509;28;20044;-60
2022/04/28 09:21:46;;;;;;;6.78;3.78;;;;;;;17.91;41.71;99137.44;5022351;28;20029;-61
2022/04/28 09:25:05;;;;;;;7.22;3.25;;;;;;;18.02;41.95;99144.91;5017447;28;20484;-60
2022/04/28 09:27:30;;;;;;;6.90;3.65;;;;;;;17.73;43.49;99144.81;5015905;28;20025;-60
2022/04/28 09:29:56;;;;;;;7.55;3.95;;;;;;;17.55;42.99;99116.22;5016862;28;20038;-61
2022/04/28 09:32:22;;;;;;;7.13;3.47;;;;;;;17.60;43.64;99100.72;5021741;28;20779;-61
2022/04/28 09:34:49;;;;;;;10.02;3.60;;;;;;;17.81;44.14;99142.09;5019598;28;20551;-61
2022/04/28 09:37:22;;;;;;;6.65;3.20;;;;;;;17.67;43.43;99143.72;5017130;28;20117;-61
2022/04/28 09:42:41;;;;;;;8.45;3.90;;;;;;;17.34;43.58;99137.88;5008003;28;20045;-61
2022/04/28 09:45:08;;;;;;;7.28;3.63;;;;;;;17.09;43.94;99094.19;5009580;28;20404;-60
2022/04/28 09:47:34;;;;;;;8.43;3.80;;;;;;;17.37;43.08;99133.09;5010258;28;20040;-61
2022/04/28 09:49:59;;;;;;;8.93;4.20;;;;;;;17.45;42.79;99132.19;5009464;28;20036;-62
2022/04/28 09:52:32;;;;;;;7.55;4.15;;;;;;;17.33;42.80;99095.00;5016925;28;20033;-60
2022/04/28 09:55:00;;;;;;;8.93;3.75;;;;;;;17.53;43.68;99136.59;5011617;28;20152;-60
2022/04/28 09:57:26;;;;;;;7.00;4.13;;;;;;;17.41;43.96;99129.13;5011184;28;20124;-61
2022/04/28 09:59:53;;;;;;;7.93;4.22;;;;;;;17.36;43.03;99133.25;5012500;28;20480;-60
2022/04/28 10:02:23;;;;;;;7.57;4.15;;;;;;;17.38;42.82;99123.41;5012652;28;20025;-59
2022/04/28 10:04:50;;;;;;;9.02;4.10;;;;;;;17.52;43.10;99122.63;5012608;28;20438;-59
2022/04/28 10:07:16;;;;;;;6.82;3.78;;;;;;;17.46;43.63;99118.06;5013438;28;20039;-60
2022/04/28 10:09:47;;;;;;;7.53;3.78;;;;;;;17.31;43.29;99078.63;5015689;28;20034;-59
2022/04/28 10:12:14;;;;;;;7.70;3.70;;;;;;;17.53;43.61;99126.91;5046963;28;20038;-59
2022/04/28 10:14:41;;;;;;;7.93;4.05;;;;;;;17.67;43.12;99114.78;5018976;28;20022;-58
2022/04/28 10:17:11;;;;;;;8.30;3.88;;;;;;;17.56;43.22;99099.41;5009642;28;20041;-59
2022/04/28 10:19:41;;;;;;;8.63;4.15;;;;;;;17.63;43.40;99102.97;5002165;28;20641;-58
2022/04/28 10:22:12;;;;;;;8.00;4.13;;;;;;;17.77;42.67;99106.63;5021863;28;20040;-58
2022/04/28 10:32:59;;;;;;;7.72;4.47;;;;;;;18.00;42.17;99102.16;5015730;28;20096;-59
2022/04/28 10:35:41;;;;;;;;;;;;;;;17.93;42.10;99098.63;5028077;28;20025;-59
2022/04/28 10:38:30;;;;;;;7.40;4.15;;;;;;;17.81;41.40;99053.47;5023692;28;19913;-59
2022/04/28 10:41:06;;;;;;;8.20;4.32;;;;;;;18.26;41.02;99087.72;5014716;28;20107;-58
2022/04/28 10:43:32;;;;;;;6.93;4.10;;;;;;;18.21;42.45;99087.47;5015929;28;20037;-59
2022/04/28 10:45:59;;;;;;;7.03;3.80;;;;;;;18.14;42.23;99083.91;5026348;28;20086;-58
2022/04/28 10:48:43;;;;;;;6.53;3.78;;;;;;;18.02;42.18;99081.75;5019491;28;20028;-58
2022/04/28 10:51:11;;;;;;;7.22;4.13;;;;;;;17.96;43.70;99079.84;5017772;28;20131;-58
2022/04/28 10:53:58;;;;;;;10.32;4.43;;;;;;;17.83;42.89;99055.94;5022156;28;20886;-59
2022/04/28 10:56:25;;;;;;;6.22;3.75;;;;;;;18.06;42.94;99076.94;5024373;28;20041;-58
2022/04/28 10:58:50;;;;;;;6.57;4.13;;;;;;;17.83;42.80;99048.88;5017605;28;20033;-58
2022/04/28 11:01:26;;;;;;;8.73;4.45;;;;;;;18.08;42.60;99079.41;5032629;28;20034;-59
2022/04/28 11:03:57;;;;;;;8.40;4.88;;;;;;;18.15;41.27;99081.13;5025578;28;20065;-58
2022/04/28 11:06:34;;;;;;;6.63;4.10;;;;;;;17.96;43.38;99050.06;5020993;28;20452;-58
2022/04/28 11:09:02;;;;;;;8.20;4.45;;;;;;;17.92;44.17;99041.72;5018142;28;20017;-58
2022/04/28 11:11:49;;;;;;;7.72;4.47;;;;;;;18.24;43.64;99080.00;5019700;28;20628;-58
2022/04/28 11:14:15;;;;;;;9.93;4.57;;;;;;;18.33;43.58;99075.47;5021449;28;20152;-58
2022/04/28 11:16:41;;;;;;;8.20;4.63;;;;;;;18.07;42.49;99023.34;5020616;28;20119;-58
2022/04/28 11:19:08;;;;;;;7.57;4.70;;;;;;;18.50;42.83;99070.00;5024105;28;20488;-59
2022/04/28 11:21:39;;;;;;;9.00;4.68;;;;;;;18.27;42.99;99049.88;5003321;28;20034;-58
2022/04/28 11:24:06;;;;;;;6.88;4.40;;;;;;;18.34;43.30;99055.22;5033234;28;20026;-59
2022/04/28 11:26:31;;;;;;;8.02;4.80;;;;;;;18.39;43.05;99060.75;5035200;28;20026;-58
2022/04/28 11:29:05;;;;;;;8.30;4.80;;;;;;;18.34;42.53;99027.06;5026744;28;20071;-58
2022/04/28 11:31:31;;;;;;;7.53;4.28;;;;;;;18.61;43.08;99065.06;5018007;28;20064;-58
2022/04/28 11:33:57;;;;;;;7.50;4.63;;;;;;;18.91;41.39;99067.66;5021326;28;20410;-59
2022/04/28 11:36:27;;;;;;;7.95;4.88;;;;;;;18.93;41.46;99065.66;5024358;28;20036;-59
2022/04/28 11:38:58;;;;;;;7.25;4.55;;;;;;;18.59;42.41;99024.94;5004701;28;20025;-59
2022/04/28 11:41:34;;;;;;;9.48;4.20;;;;;;;18.54;42.50;99029.94;5018987;28;20033;-58
2022/04/28 11:44:08;;;;;;;9.00;4.38;;;;;;;18.60;41.96;99052.91;5019973;28;20029;-59
2022/04/28 11:46:55;;;;;;;7.72;4.40;;;;;;;18.70;43.14;99054.44;5011963;28;20034;-60
2022/04/28 11:49:20;;;;;;;9.52;4.97;;;;;;;18.76;42.32;99057.13;5020069;28;20049;-59
2022/04/28 11:51:46;;;;;;;7.97;4.97;;;;;;;18.79;43.14;99045.41;5020504;28;20030;-60
2022/04/28 11:54:38;;;;;;;8.15;4.32;;;;;;;18.90;41.84;99052.84;5019038;28;20036;-59
2022/04/28 11:57:08;;;;;;;7.22;4.75;;;;;;;18.87;42.48;99052.41;5013592;28;20147;-60
2022/04/28 11:59:40;;;;;;;8.13;4.72;;;;;;;18.91;41.19;99059.75;5013904;28;20091;-60
2022/04/28 12:02:24;;;;;;;7.40;4.40;;;;;;;18.93;40.62;99046.38;5014684;28;20037;-59
2022/04/28 12:04:49;;;;;;;6.88;4.35;;;;;;;18.95;42.69;99036.47;5000154;28;20025;-59
2022/04/28 12:07:19;;;;;;;7.72;4.60;;;;;;;18.92;42.30;99042.13;5011315;28;20037;-59
2022/04/28 12:15:12;;;;;;;9.57;4.85;;;;;;;19.14;41.08;99049.00;5018421;28;20084;-59
2022/04/28 12:20:53;;;;;;;7.30;4.55;;;;;;;19.13;41.74;99044.75;5035358;28;20060;-60
2022/04/28 12:23:38;;;;;;;10.05;4.90;;;;;;;19.13;42.31;99041.28;5013128;28;20072;-59
2022/04/28 12:26:06;;;;;;;8.13;4.55;;;;;;;19.09;42.12;99037.41;5022031;28;20049;-61
2022/04/28 12:28:31;;;;;;;7.45;4.55;;;;;;;19.23;42.26;99038.34;5024056;28;20480;-60
2022/04/28 12:30:57;;;;;;;10.65;5.18;;;;;;;19.34;41.84;99028.06;5015410;28;20052;-59
2022/04/28 12:33:22;;;;;;;9.40;5.30;;;;;;;19.33;41.26;99037.00;5023465;28;20076;-58
2022/04/28 12:35:48;;;;;;;7.00;4.57;;;;;;;19.41;42.41;99030.78;4991475;28;20423;-59
2022/04/28 12:38:23;;;;;;;6.78;4.30;;;;;;;19.42;41.21;99032.38;5035385;28;20036;-59
2022/04/28 12:40:49;;;;;;;8.43;5.00;;;;;;;19.33;40.76;99026.47;5023302;28;20087;-60
2022/04/28 12:43:40;;;;;;;8.05;4.75;;;;;;;19.56;42.58;99020.13;4993688;28;20644;-60
2022/04/28 12:46:08;;;;;;;9.70;4.85;;;;;;;19.65;41.59;99016.31;5002189;28;20033;-60
2022/04/28 12:48:35;;;;;;;9.45;5.47;;;;;;;19.70;40.54;99013.94;5011048;28;20041;-59
2022/04/28 12:51:17;;;;;;;8.70;5.18;;;;;;;19.76;39.59;99026.38;5011228;28;20112;-59
2022/04/28 12:54:11;;;;;;;8.57;5.15;;;;;;;19.78;40.27;99008.50;5010493;28;20053;-59
2022/04/28 12:56:37;;;;;;;7.88;4.68;;;;;;;19.94;40.45;99011.84;5015771;28;20083;-60
2022/04/28 12:59:05;;;;;;;9.75;5.28;;;;;;;19.64;40.20;98980.41;5021407;28;20048;-60
2022/04/28 13:01:31;;;;;;;6.55;4.50;;;;;;;19.94;40.31;99017.13;4995857;28;20179;-60
2022/04/28 13:04:04;;;;;;;8.30;4.90;;;;;;;19.84;40.11;98992.91;5022393;28;20095;-60
2022/04/28 13:06:33;;;;;;;9.25;5.15;;;;;;;19.81;39.70;98978.31;5020660;28;20030;-59
2022/04/28 13:09:00;;;;;;;8.00;4.60;;;;;;;19.88;41.62;98994.19;5015688;28;20055;-60
2022/04/28 13:11:28;;;;;;;6.93;4.40;;;;;;;19.94;40.51;98999.47;5023023;28;20022;-60
2022/04/28 13:13:55;;;;;;;9.25;5.05;;;;;;;20.10;40.39;99003.59;5016441;28;20103;-61
2022/04/28 13:16:20;;;;;;;10.40;4.28;;;;;;;20.08;40.55;98999.50;5018023;28;20018;-59
2022/04/28 13:18:47;;;;;;;7.47;4.43;;;;;;;20.12;41.46;98992.84;5021701;28;20029;-61
2022/04/28 13:21:12;;;;;;;6.82;4.47;;;;;;;20.16;40.72;98989.59;5019407;28;20029;-60
2022/04/28 13:23:42;;;;;;;8.55;5.00;;;;;;;20.00;39.40;98937.16;5020603;28;20021;-59
2022/04/28 13:26:09;;;;;;;9.35;5.03;;;;;;;20.30;39.60;98994.97;5000637;28;20034;-60
2022/04/28 13:28:35;;;;;;;6.65;4.47;;;;;;;20.25;40.09;98963.84;4991184;28;20073;-59
2022/04/28 13:31:00;;;;;;;9.77;4.93;;;;;;;20.41;38.99;98981.16;5005128;28;20554;-60
2022/04/28 13:33:26;;;;;;;7.72;4.25;;;;;;;20.41;40.19;98977.69;5006634;28;20046;-61
2022/04/28 13:35:52;;;;;;;8.70;5.35;;;;;;;20.44;39.75;98972.03;5006056;28;20067;-59
2022/04/28 13:38:17;;;;;;;11.07;4.53;;;;;;;20.34;40.19;98964.50;4995318;28;20037;-59
2022/04/28 13:40:43;;;;;;;7.40;4.50;;;;;;;20.42;40.01;98968.78;5006850;28;20029;-60
2022/04/28 13:43:08;;;;;;;8.25;4.78;;;;;;;20.49;40.33;98956.41;5038891;28;20044;-60
2022/04/28 13:45:34;;;;;;;11.23;4.15;;;;;;;20.55;39.26;98966.16;5017735;28;20493;-59
2022/04/28 13:47:59;;;;;;;6.85;4.30;;;;;;;20.42;39.80;98927.31;5008025;28;20483;-60
2022/04/28 13:50:25;;;;;;;8.48;4.38;;;;;;;20.74;39.96;98964.59;5015719;28;20570;-60
2022/04/28 13:52:50;;;;;;;7.03;4.43;;;;;;;20.75;39.55;98963.56;5020967;28;20602;-60
2022/04/28 13:55:17;;;;;;;8.65;5.03;;;;;;;20.70;38.58;98964.19;5024381;28;20137;-60
2022/04/28 13:57:43;;;;;;;6.97;4.30;;;;;;;20.59;38.95;98951.56;5007927;28;20049;-60
2022/04/28 14:00:09;;;;;;;8.43;4.30;;;;;;;20.68;39.18;98945.09;5024572;28;20029;-60
2022/04/28 14:02:34;;;;;;;8.75;4.85;;;;;;;20.91;39.65;98941.22;5026018;28;20032;-60
2022/04/28 14:04:59;;;;;;;7.25;4.32;;;;;;;20.89;39.01;98936.13;5024987;28;20409;-60
2022/04/28 14:07:25;;;;;;;6.63;4.18;;;;;;;20.73;38.61;98887.13;5027324;28;20036;-60
2022/04/28 14:09:52;;;;;;;8.20;4.50;;;;;;;21.00;38.42;98936.53;5024348;28;20029;-59
2022/04/28 14:12:18;;;;;;;10.93;4.78;;;;;;;20.91;38.92;98928.00;5025483;28;20111;-61
2022/04/28 14:14:43;;;;;;;6.45;3.78;;;;;;;20.77;38.96;98889.38;5023437;28;20026;-59
2022/04/28 14:17:08;;;;;;;6.97;4.28;;;;;;;20.83;38.19;98883.31;5022124;28;20515;-59
2022/04/28 14:19:34;;;;;;;8.02;4.80;;;;;;;21.03;37.81;98910.53;5029261;28;20038;-61
2022/04/28 14:22:01;;;;;;;9.23;4.28;;;;;;;21.02;38.47;98914.16;5003445;28;20036;-59
2022/04/28 14:24:27;;;;;;;8.82;4.90;;;;;;;20.78;38.77;98875.97;4999383;28;20040;-60
2022/04/28 14:26:52;;;;;;;8.15;4.22;;;;;;;20.84;38.41;98885.72;5028237;28;20021;-61
2022/04/28 14:29:18;;;;;;;6.97;4.30;;;;;;;21.00;38.31;98920.69;5021295;28;20349;-62
2022/04/28 14:31:44;;;;;;;7.82;4.05;;;;;;;21.13;38.18;98910.91;5039269;28;20125;-62
2022/04/28 14:34:10;;;;;;;8.52;4.63;;;;;;;20.93;37.90;98878.41;5019221;28;20144;-60
2022/04/28 14:36:36;;;;;;;10.93;4.47;;;;;;;20.98;38.15;98904.22;5020998;28;20030;-61
2022/04/28 14:39:02;;;;;;;8.07;4.53;;;;;;;21.03;38.50;98913.16;5028483;28;20056;-59
2022/04/28 14:41:28;;;;;;;6.90;3.50;;;;;;;21.16;38.48;98908.88;5004599;28;20025;-60
2022/04/28 14:43:53;;;;;;;7.45;4.15;;;;;;;21.19;37.97;98906.63;5011855;28;20052;-59
2022/04/28 14:46:19;;;;;;;9.63;4.20;;;;;;;21.28;37.69;98905.41;5018274;28;20025;-60
2022/04/28 14:54:17;;;;;;;6.13;3.88;;;;;;;21.20;37.51;98860.66;5022450;28;20096;-61
2022/04/28 14:56:42;;;;;;;7.15;4.28;;;;;;;21.43;37.49;98897.22;5021255;28;20033;-59
2022/04/28 14:59:08;;;;;;;6.68;4.20;;;;;;;21.48;37.55;98901.91;5007371;28;20028;-59
2022/04/28 15:01:33;;;;;;;7.88;3.97;;;;;;;21.49;37.33;98901.69;5021025;28;20026;-60
2022/04/28 15:04:00;;;;;;;7.25;3.88;;;;;;;21.58;37.45;98896.19;5035405;28;20813;-60
2022/04/28 15:06:25;;;;;;;9.50;3.90;;;;;;;21.68;37.72;98901.84;5019848;28;20262;-59
2022/04/28 15:08:51;;;;;;;6.40;4.07;;;;;;;21.71;36.79;98900.63;5028735;28;20478;-60
2022/04/28 15:11:16;;;;;;;7.07;4.35;;;;;;;21.63;36.53;98894.53;5033572;28;20030;-60
2022/04/28 15:13:42;;;;;;;7.65;4.32;;;;;;;21.54;36.58;98890.50;5025072;28;20433;-60
2022/04/28 15:16:07;;;;;;;6.72;4.20;;;;;;;21.58;36.69;98904.13;5008597;28;20037;-60
2022/04/28 15:18:32;;;;;;;6.57;3.63;;;;;;;21.41;36.54;98893.13;5019640;28;20469;-60
2022/04/28 15:20:58;;;;;;;7.00;4.03;;;;;;;21.54;37.15;98887.03;4924810;28;20598;-61
2022/04/28 15:23:23;;;;;;;6.80;4.50;;;;;;;21.59;36.71;98888.03;5022855;28;20561;-60
2022/04/28 15:26:45;;;;;;;8.32;4.47;;;;;;;21.57;37.30;98892.72;5017662;28;20018;-60
2022/04/28 15:29:12;;;;;;;9.05;4.45;;;;;;;21.60;36.84;98899.44;5021886;28;20037;-59
2022/04/28 15:31:38;;;;;;;7.35;4.28;;;;;;;21.64;36.76;98890.06;5038150;28;20041;-60
2022/04/28 15:34:04;;;;;;;7.93;4.20;;;;;;;21.29;37.50;98845.38;5015011;28;20714;-61
2022/04/28 15:36:30;;;;;;;7.57;4.28;;;;;;;21.46;36.91;98885.44;5016359;28;20025;-60
2022/04/28 15:38:56;;;;;;;8.35;4.25;;;;;;;21.61;36.78;98893.09;5014140;28;20033;-59
2022/04/28 15:41:22;;;;;;;7.68;4.30;;;;;;;21.63;36.85;98889.25;5053306;28;20486;-60
2022/04/28 15:43:47;;;;;;;9.13;4.28;;;;;;;21.66;36.31;98893.28;5034451;28;20738;-60
2022/04/28 15:46:13;;;;;;;8.00;4.53;;;;;;;21.52;36.52;98863.44;5006640;28;20491;-61
2022/04/28 15:48:39;;;;;;;8.00;5.10;;;;;;;21.76;35.95;98887.53;5013173;28;20116;-59
2022/04/28 15:51:04;;;;;;;8.00;4.53;;;;;;;21.49;37.17;98885.81;5032125;28;20037;-60
2022/04/28 15:53:31;;;;;;;8.57;4.80;;;;;;;21.17;37.17;98847.84;5019001;28;20583;-60
2022/04/28 15:55:56;;;;;;;6.95;3.88;;;;;;;21.49;37.37;98891.13;5009255;28;20073;-60
2022/04/28 15:58:22;;;;;;;6.50;4.20;;;;;;;21.66;36.69;98880.06;5034822;28;20037;-59
2022/04/28 16:00:48;;;;;;;7.70;4.00;;;;;;;21.29;37.46;98846.19;5023235;28;20426;-61
2022/04/28 16:03:14;;;;;;;7.38;4.15;;;;;;;21.46;37.45;98880.13;5012316;28;20037;-60
2022/04/28 16:05:40;;;;;;;6.82;3.80;;;;;;;21.36;37.54;98874.47;5037749;28;20752;-60
2022/04/28 16:08:05;;;;;;;6.78;3.58;;;;;;;21.10;36.90;98841.75;5016159;28;20037;-59
2022/04/28 16:10:33;;;;;;;6.93;4.15;;;;;;;21.35;36.73;98889.50;5016610;28;20037;-59
2022/04/28 16:12:58;;;;;;;6.40;3.60;;;;;;;21.40;38.34;98886.25;5053832;28;20032;-60
2022/04/28 16:15:24;;;;;;;6.93;4.38;;;;;;;21.35;38.24;98884.22;5031895;28;20403;-59
2022/04/28 16:17:49;;;;;;;8.18;3.78;;;;;;;21.31;38.52;98886.44;5027311;28;20021;-59
2022/04/28 16:20:16;;;;;;;7.80;4.20;;;;;;;21.28;38.71;98888.69;5025200;28;20770;-59
2022/04/28 16:22:41;;;;;;;7.18;3.95;;;;;;;20.92;39.00;98882.88;5018746;28;20392;-60
2022/04/28 16:25:07;;;;;;;7.38;4.13;;;;;;;20.65;40.03;98892.63;5026789;28;20349;-59
2022/04/28 16:27:33;;;;;;;7.55;4.32;;;;;;;20.50;39.83;98895.44;5000620;28;20378;-60
2022/04/28 16:29:59;;;;;;;9.60;5.05;;;;;;;20.34;40.34;98887.91;5037068;28;20025;-60
2022/04/28 16:32:26;;;;;;;7.63;4.40;;;;;;;20.32;40.41;98897.88;5022383;28;20470;-59
2022/04/28 16:34:51;;;;;;;9.93;4.38;;;;;;;20.16;40.68;98899.84;5029272;28;20076;-59
2022/04/28 16:37:17;;;;;;;8.32;5.07;;;;;;;20.22;40.01;98900.06;5006692;28;20088;-59
2022/04/28 16:39:42;;;;;;;8.82;4.68;;;;;;;20.11;40.52;98901.47;5020938;28;20030;-60
2022/04/28 16:42:08;;;;;;;7.97;4.50;;;;;;;19.89;41.49;98898.97;5025153;28;20057;-59
2022/04/28 16:44:34;;;;;;;7.47;4.50;;;;;;;19.87;41.59;98903.63;5014909;28;20047;-59
2022/04/28 16:47:03;;;;;;;8.27;5.07;;;;;;;19.72;41.87;98901.09;5018496;28;20059;-59
2022/04/28 16:49:29;;;;;;;8.93;5.47;;;;;;;19.52;41.86;98871.19;5056032;28;20124;-58
2022/04/28 16:51:57;;;;;;;7.00;4.63;;;;;;;19.71;41.83;98915.31;5029194;28;20038;-59
2022/04/28 16:54:27;;;;;;;8.52;5.15;;;;;;;19.75;42.24;98923.66;5029067;28;20033;-59
2022/04/28 16:56:57;;;;;;;7.68;4.32;;;;;;;19.60;42.73;98923.78;5027300;28;20026;-62
2022/04/28 16:59:23;;;;;;;8.63;4.97;;;;;;;19.47;42.97;98927.16;5014219;28;20082;-59
